Terminal Aerodrome Forecast
Issued by NWS

Home | Current Version | Previous Version | Text Only | Print | Product List | Glossary On
Versions: 1 2 3 4 5 6 7 8 9 10 11 12 13 14 15
000
FTUS42 KFFC 251344 AAA
TAFRYY
TAF AMD
KRYY 251344Z 2514/2612 31010G17KT P6SM SCT010 BKN023
     FM251600 31011G19KT P6SM BKN028
     FM251800 31012G20KT P6SM BKN035
     FM252300 31010KT P6SM SCT090
     FM260200 31005KT P6SM SCT250=

USA.gov is the U.S. government's official web portal to all federal, state and local government web resources and services.